Time;durP1;ratioP1;P1;durP2;ratioP2;P2;SDS_P1;SDS_P2;PMS_P1;PMS_P2;Temp;Humidity;BMP_temperature;BMP_pressure;BME280_temperature;BME280_humidity;BME280_pressure;Samples;Min_cycle;Max_cycle;Signal;HPM_P1;HPM_P2
2023/02/04 00:01:11;;;;;;;1.35;0.70;;;17.90;38.60;;;;;;6130286;23;20575;-79
2023/02/04 00:03:36;;;;;;;2.97;0.60;;;17.90;38.60;;;;;;6130214;23;20503;-80
2023/02/04 00:06:02;;;;;;;1.98;0.63;;;18.00;38.70;;;;;;6156316;23;20136;-79
2023/02/04 00:08:28;;;;;;;2.22;0.60;;;17.90;38.70;;;;;;6130132;23;20587;-79
2023/02/04 00:10:53;;;;;;;2.50;0.50;;;17.90;38.70;;;;;;6156338;23;20579;-79
2023/02/04 00:13:19;;;;;;;0.70;0.50;;;17.90;38.70;;;;;;6156195;23;20587;-80
2023/02/04 00:15:45;;;;;;;2.22;0.70;;;17.90;38.70;;;;;;6130186;23;20572;-79
2023/02/04 00:18:10;;;;;;;0.85;0.40;;;17.90;38.80;;;;;;6130012;23;20190;-79
2023/02/04 00:20:36;;;;;;;0.47;0.47;;;17.80;38.90;;;;;;6130133;23;20243;-79
2023/02/04 00:23:01;;;;;;;3.65;0.68;;;17.90;38.90;;;;;;6130063;23;20531;-79
2023/02/04 00:25:27;;;;;;;1.60;0.40;;;17.90;38.90;;;;;;6156197;23;20135;-79
2023/02/04 00:27:53;;;;;;;1.75;0.65;;;17.90;38.90;;;;;;6156015;23;20448;-79
2023/02/04 00:30:18;;;;;;;1.15;0.40;;;17.90;38.90;;;;;;6130323;23;20186;-79
2023/02/04 00:32:44;;;;;;;2.25;0.40;;;17.90;39.00;;;;;;6155990;23;20555;-79
2023/02/04 00:35:10;;;;;;;1.00;0.50;;;17.90;39.00;;;;;;6130012;23;20579;-79
2023/02/04 00:37:35;;;;;;;2.38;0.60;;;17.90;39.00;;;;;;6155880;23;20183;-79
2023/02/04 00:40:01;;;;;;;1.10;0.68;;;17.80;39.10;;;;;;6156088;23;20214;-79
2023/02/04 00:42:26;;;;;;;1.35;0.47;;;17.90;39.00;;;;;;6129942;23;20675;-79
2023/02/04 00:44:53;;;;;;;1.70;0.60;;;17.90;39.00;;;;;;6130111;23;20467;-79
2023/02/04 00:47:18;;;;;;;0.70;0.60;;;17.80;39.00;;;;;;6129761;23;20182;-79
2023/02/04 00:49:44;;;;;;;2.65;0.55;;;17.90;39.10;;;;;;6130027;23;20139;-79
2023/02/04 00:52:10;;;;;;;1.75;0.80;;;17.80;39.10;;;;;;6129932;23;20144;-79
2023/02/04 00:54:35;;;;;;;1.60;0.47;;;17.90;39.10;;;;;;6130045;23;20170;-79
2023/02/04 00:57:01;;;;;;;1.00;0.68;;;17.80;39.20;;;;;;6129907;23;20158;-79
2023/02/04 00:59:27;;;;;;;1.35;0.47;;;17.80;39.10;;;;;;6155762;23;20619;-79
2023/02/04 01:01:52;;;;;;;1.35;0.60;;;17.90;39.90;;;;;;6105416;23;20598;-79
2023/02/04 01:04:18;;;;;;;1.67;0.70;;;17.80;39.30;;;;;;6105536;23;20198;-79
2023/02/04 01:06:44;;;;;;;1.95;0.60;;;17.80;39.30;;;;;;6155868;23;20132;-80
2023/02/04 01:09:09;;;;;;;1.63;0.60;;;17.80;39.10;;;;;;6129941;23;20140;-79
2023/02/04 01:11:35;;;;;;;0.80;0.50;;;17.80;39.30;;;;;;6105519;23;20467;-80
2023/02/04 01:14:01;;;;;;;1.40;0.40;;;17.80;39.30;;;;;;6155724;23;20210;-79
2023/02/04 01:16:27;;;;;;;1.80;0.60;;;17.80;39.30;;;;;;6130289;23;20151;-79
2023/02/04 01:18:54;;;;;;;0.70;0.55;;;17.80;39.30;;;;;;6155637;23;20262;-79
2023/02/04 01:21:22;;;;;;;2.45;0.50;;;17.80;39.20;;;;;;6130488;23;20183;-80
2023/02/04 01:23:48;;;;;;;1.77;0.60;;;17.80;39.40;;;;;;6155840;23;20563;-79
2023/02/04 01:26:15;;;;;;;1.92;0.50;;;17.70;39.30;;;;;;6156074;23;20223;-79
2023/02/04 01:28:41;;;;;;;1.08;0.50;;;17.80;40.10;;;;;;6129724;23;20474;-79
2023/02/04 01:31:06;;;;;;;1.67;0.60;;;17.80;39.40;;;;;;6156083;23;20163;-79
2023/02/04 01:33:32;;;;;;;2.88;0.80;;;17.80;39.50;;;;;;6155936;23;20507;-79
2023/02/04 01:35:57;;;;;;;1.58;0.50;;;17.80;39.40;;;;;;6130200;23;20147;-79
2023/02/04 01:38:23;;;;;;;1.13;0.63;;;17.80;39.40;;;;;;6155395;23;20550;-79
2023/02/04 01:40:49;;;;;;;2.38;0.60;;;17.70;39.40;;;;;;6155826;23;20132;-79
2023/02/04 01:43:16;;;;;;;1.30;0.50;;;17.70;39.50;;;;;;6129656;23;20464;-79
2023/02/04 01:45:43;;;;;;;1.90;0.85;;;17.80;39.50;;;;;;6105659;23;20148;-79
2023/02/04 01:48:08;;;;;;;2.17;0.68;;;17.80;39.60;;;;;;6155943;23;20463;-79
2023/02/04 01:50:34;;;;;;;2.30;0.60;;;17.70;39.50;;;;;;6155632;23;20139;-79
2023/02/04 01:53:00;;;;;;;1.85;0.50;;;17.70;39.60;;;;;;6129476;23;20148;-79
2023/02/04 01:55:27;;;;;;;2.40;0.40;;;17.70;39.60;;;;;;6156021;23;20219;-79
2023/02/04 01:57:53;;;;;;;1.75;0.50;;;17.70;39.70;;;;;;6129850;23;20228;-79
2023/02/04 02:00:23;;;;;;;1.55;0.70;;;17.70;39.50;;;;;;6131740;23;20167;-80
2023/02/04 02:02:49;;;;;;;1.08;0.50;;;17.80;39.70;;;;;;6157435;23;20512;-79
2023/02/04 02:05:20;;;;;;;1.65;0.40;;;17.70;39.70;;;;;;6157739;23;20143;-80
2023/02/04 02:07:46;;;;;;;2.65;0.70;;;17.70;39.60;;;;;;6131656;23;20158;-79
2023/02/04 02:10:12;;;;;;;0.57;0.45;;;17.70;39.70;;;;;;6131285;23;20143;-79
2023/02/04 02:12:38;;;;;;;1.27;0.50;;;17.70;39.60;;;;;;6131309;23;20530;-79
2023/02/04 02:15:04;;;;;;;0.75;0.50;;;17.70;39.70;;;;;;6157462;23;20140;-79
2023/02/04 02:17:30;;;;;;;2.65;0.60;;;17.70;39.80;;;;;;6157306;23;20226;-79
2023/02/04 02:19:55;;;;;;;1.55;0.50;;;17.70;39.60;;;;;;6131274;23;20170;-79
2023/02/04 02:22:38;;;;;;;0.93;0.50;;;17.70;39.80;;;;;;6157362;23;20182;-79
2023/02/04 02:25:10;;;;;;;1.75;0.57;;;17.70;39.80;;;;;;6157636;23;20138;-79
2023/02/04 02:27:35;;;;;;;0.85;0.60;;;17.70;39.70;;;;;;6131482;23;20559;-80
2023/02/04 02:30:01;;;;;;;1.10;0.50;;;17.70;39.70;;;;;;6157307;23;20218;-79
2023/02/04 02:32:27;;;;;;;1.77;0.60;;;17.70;39.70;;;;;;6157530;23;20175;-79
2023/02/04 02:34:53;;;;;;;2.15;0.70;;;17.70;39.70;;;;;;6157209;23;20136;-80
2023/02/04 02:37:18;;;;;;;1.17;0.60;;;17.70;39.70;;;;;;6156942;23;20191;-79
2023/02/04 02:39:44;;;;;;;0.80;0.47;;;17.70;39.80;;;;;;6157488;23;20591;-79
2023/02/04 02:42:12;;;;;;;1.00;0.68;;;17.70;39.80;;;;;;6131273;23;20132;-79
2023/02/04 02:44:38;;;;;;;2.15;0.57;;;17.70;39.80;;;;;;6156963;23;20158;-79
2023/02/04 02:47:03;;;;;;;2.25;0.50;;;17.70;39.80;;;;;;6157008;23;20135;-79
2023/02/04 02:49:30;;;;;;;1.67;0.70;;;17.70;39.80;;;;;;6131131;23;20615;-79
2023/02/04 02:51:55;;;;;;;1.38;0.60;;;17.70;39.90;;;;;;6106613;23;20155;-79
2023/02/04 02:54:23;;;;;;;1.20;0.50;;;17.60;39.90;;;;;;6106920;23;20177;-80
2023/02/04 02:56:49;;;;;;;1.33;0.60;;;17.70;39.90;;;;;;6157230;23;20479;-79
2023/02/04 02:59:16;;;;;;;1.35;0.40;;;17.70;40.00;;;;;;6106867;23;20476;-80
2023/02/04 03:01:42;;;;;;;1.67;0.50;;;17.70;40.00;;;;;;6131302;23;20215;-79
2023/02/04 03:04:07;;;;;;;1.88;0.60;;;17.70;40.00;;;;;;6131251;23;20159;-79
2023/02/04 03:06:33;;;;;;;1.10;0.50;;;17.70;40.00;;;;;;6157168;23;20135;-79
2023/02/04 03:08:58;;;;;;;1.10;0.50;;;17.60;40.00;;;;;;6156784;23;20520;-79
2023/02/04 03:11:28;;;;;;;0.75;0.50;;;17.60;40.00;;;;;;6156746;23;20144;-79
2023/02/04 03:13:54;;;;;;;1.33;0.60;;;17.70;40.00;;;;;;6157061;23;20165;-79
2023/02/04 03:16:20;;;;;;;2.28;0.40;;;17.70;40.10;;;;;;6130711;23;20159;-80
2023/02/04 03:18:46;;;;;;;0.60;0.47;;;17.70;40.10;;;;;;6156622;23;20163;-80
2023/02/04 03:21:11;;;;;;;0.80;0.60;;;17.60;40.10;;;;;;6156812;23;20630;-79
2023/02/04 03:23:37;;;;;;;1.05;0.45;;;17.60;40.10;;;;;;6156710;23;20519;-80
2023/02/04 03:26:03;;;;;;;1.33;0.73;;;17.60;40.10;;;;;;6156680;23;20131;-79
2023/02/04 03:28:30;;;;;;;0.93;0.70;;;17.60;40.10;;;;;;6156717;23;20167;-79
2023/02/04 03:30:56;;;;;;;2.05;0.73;;;17.60;40.20;;;;;;6157244;23;20132;-79
2023/02/04 03:33:23;;;;;;;1.00;0.47;;;17.60;40.20;;;;;;6130844;23;20139;-80
2023/02/04 03:35:48;;;;;;;1.40;0.50;;;17.60;40.20;;;;;;6156778;23;20139;-79
2023/02/04 03:38:14;;;;;;;2.47;0.50;;;17.60;40.10;;;;;;6156534;23;20522;-79
2023/02/04 03:40:40;;;;;;;0.93;0.60;;;17.60;40.20;;;;;;6156613;23;20136;-79
2023/02/04 03:43:05;;;;;;;0.82;0.50;;;17.60;40.20;;;;;;6156851;23;20576;-79
2023/02/04 03:45:31;;;;;;;0.60;0.50;;;17.60;40.10;;;;;;6156426;23;20471;-79
2023/02/04 03:47:56;;;;;;;0.52;0.50;;;17.60;40.10;;;;;;6156470;23;20625;-79
2023/02/04 03:50:22;;;;;;;1.92;0.60;;;17.60;40.10;;;;;;6156364;23;20571;-79
2023/02/04 03:52:50;;;;;;;1.42;0.60;;;17.60;40.10;;;;;;6156483;23;20595;-79
2023/02/04 03:55:16;;;;;;;2.08;0.60;;;17.60;40.90;;;;;;6156638;23;20139;-79
2023/02/04 03:57:41;;;;;;;1.13;0.50;;;17.60;40.20;;;;;;6130491;23;20163;-80
2023/02/04 04:00:08;;;;;;;0.60;0.50;;;17.60;40.20;;;;;;6156347;23;20159;-79
2023/02/04 04:02:34;;;;;;;1.50;0.70;;;17.60;40.20;;;;;;6156320;23;20211;-79
2023/02/04 04:05:00;;;;;;;3.92;0.90;;;17.60;40.20;;;;;;6156306;23;20131;-79
2023/02/04 04:07:25;;;;;;;0.50;0.50;;;17.60;40.20;;;;;;6156375;23;20523;-79
2023/02/04 04:09:51;;;;;;;3.35;0.70;;;17.60;40.30;;;;;;6156215;23;20478;-79
2023/02/04 04:12:16;;;;;;;0.90;0.60;;;17.60;40.30;;;;;;6156337;23;20567;-79
2023/02/04 04:14:42;;;;;;;1.48;0.70;;;17.60;40.30;;;;;;6156504;23;20583;-79
2023/02/04 04:17:08;;;;;;;1.02;0.40;;;17.60;40.40;;;;;;6156829;23;20608;-79
2023/02/04 04:19:34;;;;;;;0.73;0.43;;;17.60;40.30;;;;;;6156187;23;20618;-79
2023/02/04 04:22:00;;;;;;;1.30;0.50;;;17.60;40.30;;;;;;6156034;23;20132;-79
2023/02/04 04:24:25;;;;;;;0.80;0.40;;;17.60;40.30;;;;;;6156404;23;20140;-79
2023/02/04 04:26:51;;;;;;;1.17;0.52;;;17.60;40.40;;;;;;6156510;23;20140;-79
2023/02/04 04:29:17;;;;;;;0.70;0.57;;;17.60;40.40;;;;;;6130112;23;20223;-79
2023/02/04 04:31:43;;;;;;;1.65;0.60;;;17.60;40.40;;;;;;6156124;23;20452;-79
2023/02/04 04:34:09;;;;;;;1.30;0.43;;;17.60;40.50;;;;;;6156271;23;20646;-79
2023/02/04 04:36:35;;;;;;;1.35;0.57;;;17.60;40.40;;;;;;6155697;23;20143;-79
2023/02/04 04:39:01;;;;;;;0.90;0.60;;;17.60;40.40;;;;;;6156023;23;20168;-79
2023/02/04 04:41:26;;;;;;;0.60;0.50;;;17.60;40.50;;;;;;6130268;23;20190;-78
2023/02/04 04:43:52;;;;;;;0.70;0.60;;;17.60;40.50;;;;;;6130586;23;20203;-78
2023/02/04 04:46:17;;;;;;;1.23;0.50;;;17.50;40.50;;;;;;6130551;23;20511;-78
2023/02/04 04:48:43;;;;;;;2.08;0.60;;;17.50;40.50;;;;;;6129935;23;20135;-79
2023/02/04 04:51:09;;;;;;;0.75;0.43;;;17.50;40.50;;;;;;6156062;23;20590;-79
2023/02/04 04:53:34;;;;;;;0.60;0.50;;;17.50;40.50;;;;;;6129943;23;20643;-79
2023/02/04 04:56:00;;;;;;;1.38;0.70;;;17.50;40.40;;;;;;6155894;23;20606;-78
2023/02/04 04:58:26;;;;;;;1.05;0.52;;;17.50;40.50;;;;;;6129905;23;20587;-79
2023/02/04 05:00:51;;;;;;;0.93;0.40;;;17.50;40.50;;;;;;6155866;23;20158;-79
2023/02/04 05:03:17;;;;;;;0.73;0.40;;;17.50;40.50;;;;;;6130034;23;20468;-78
2023/02/04 05:05:43;;;;;;;0.93;0.50;;;17.50;40.50;;;;;;6155876;23;20467;-78
2023/02/04 05:08:11;;;;;;;1.33;0.68;;;17.50;40.50;;;;;;6155890;23;20571;-78
2023/02/04 05:10:39;;;;;;;1.58;0.47;;;17.60;40.50;;;;;;6155928;23;20178;-79
2023/02/04 05:13:05;;;;;;;0.40;0.35;;;17.60;40.60;;;;;;6155820;23;20510;-78
2023/02/04 05:15:30;;;;;;;1.65;0.40;;;17.60;40.50;;;;;;6130229;23;20135;-78
2023/02/04 05:17:57;;;;;;;1.23;0.50;;;17.60;40.50;;;;;;6156159;23;20146;-79
2023/02/04 05:20:23;;;;;;;1.10;0.60;;;17.50;40.50;;;;;;6155708;23;20166;-78
2023/02/04 05:22:49;;;;;;;1.00;0.60;;;17.50;40.50;;;;;;6156182;23;20139;-79
2023/02/04 05:25:15;;;;;;;0.30;0.30;;;17.50;40.60;;;;;;6155799;23;20136;-79
2023/02/04 05:27:42;;;;;;;1.52;0.52;;;17.50;40.50;;;;;;6106835;23;20552;-79
2023/02/04 05:30:09;;;;;;;1.25;0.65;;;17.50;40.50;;;;;;6129865;23;20190;-79
2023/02/04 05:32:35;;;;;;;1.98;0.65;;;17.50;40.70;;;;;;6129968;23;20155;-79
2023/02/04 05:35:01;;;;;;;0.98;0.60;;;17.50;40.70;;;;;;6107810;23;20486;-79
2023/02/04 05:37:26;;;;;;;1.98;0.68;;;17.50;40.60;;;;;;6132455;23;20190;-79
2023/02/04 05:39:52;;;;;;;0.65;0.50;;;17.50;40.70;;;;;;6157544;23;20245;-79
2023/02/04 05:42:18;;;;;;;1.45;0.65;;;17.50;40.70;;;;;;6158058;23;20150;-79
2023/02/04 05:44:43;;;;;;;3.15;0.70;;;17.50;40.70;;;;;;6131691;23;20622;-79
2023/02/04 05:47:09;;;;;;;1.27;0.50;;;17.50;40.70;;;;;;6157488;23;20155;-79
2023/02/04 05:49:35;;;;;;;1.08;0.50;;;17.50;40.70;;;;;;6157660;23;20163;-79
2023/02/04 05:52:00;;;;;;;1.35;0.70;;;17.50;41.50;;;;;;6131686;23;20534;-80
2023/02/04 05:54:26;;;;;;;0.82;0.55;;;17.50;40.80;;;;;;6157632;23;20482;-79
2023/02/04 05:56:52;;;;;;;1.88;0.60;;;17.50;40.60;;;;;;6157960;23;20140;-79
2023/02/04 05:59:17;;;;;;;1.35;0.50;;;17.50;40.70;;;;;;6157424;23;20195;-79
2023/02/04 06:01:43;;;;;;;1.10;0.60;;;17.50;40.80;;;;;;6157965;23;20205;-79
2023/02/04 06:04:09;;;;;;;0.52;0.52;;;17.50;40.70;;;;;;6157698;23;20567;-79
2023/02/04 06:06:35;;;;;;;0.93;0.60;;;17.50;40.70;;;;;;6157759;23;20215;-79
2023/02/04 06:09:00;;;;;;;1.23;0.60;;;17.50;40.80;;;;;;6157461;23;20136;-78
2023/02/04 06:11:26;;;;;;;0.85;0.35;;;17.50;40.80;;;;;;6130903;23;20151;-80
2023/02/04 06:13:52;;;;;;;0.93;0.73;;;17.50;40.70;;;;;;6157053;23;20583;-80
2023/02/04 06:16:17;;;;;;;0.50;0.50;;;17.50;40.80;;;;;;6131477;23;20474;-79
2023/02/04 06:18:43;;;;;;;0.80;0.50;;;17.50;40.80;;;;;;6157158;23;20177;-80
2023/02/04 06:21:09;;;;;;;0.55;0.43;;;17.50;40.80;;;;;;6157689;23;20459;-80
2023/02/04 06:23:34;;;;;;;0.60;0.60;;;17.50;40.80;;;;;;6106887;23;20161;-79
2023/02/04 06:26:01;;;;;;;1.02;0.40;;;17.50;40.80;;;;;;6157251;23;20163;-79
2023/02/04 06:28:27;;;;;;;0.73;0.50;;;17.50;40.80;;;;;;6157337;23;20186;-79
2023/02/04 06:30:53;;;;;;;0.40;0.40;;;17.50;40.90;;;;;;6157216;23;20132;-79
2023/02/04 06:33:20;;;;;;;0.98;0.47;;;17.50;40.80;;;;;;6106790;23;20152;-78
2023/02/04 06:35:46;;;;;;;0.40;0.40;;;17.50;40.80;;;;;;6157164;23;20504;-79
2023/02/04 06:38:11;;;;;;;1.85;0.45;;;17.50;40.80;;;;;;6156864;23;20191;-79
2023/02/04 06:40:37;;;;;;;1.55;0.52;;;17.50;40.90;;;;;;6157181;23;20189;-79
2023/02/04 06:43:03;;;;;;;0.60;0.45;;;17.50;40.80;;;;;;6157361;23;20568;-79
2023/02/04 06:45:29;;;;;;;0.50;0.50;;;17.50;40.80;;;;;;6156945;23;20198;-80
2023/02/04 06:47:54;;;;;;;0.63;0.50;;;17.50;40.80;;;;;;6106505;23;20148;-79
2023/02/04 06:50:20;;;;;;;2.55;0.55;;;17.50;40.80;;;;;;6131082;23;20638;-79
2023/02/04 06:52:46;;;;;;;0.40;0.40;;;17.50;40.90;;;;;;6157127;23;20522;-79
2023/02/04 06:55:12;;;;;;;0.73;0.60;;;17.50;40.90;;;;;;6131128;23;20162;-79
2023/02/04 06:57:38;;;;;;;1.08;0.50;;;17.50;40.90;;;;;;6156936;23;20157;-79
2023/02/04 07:00:05;;;;;;;0.52;0.38;;;17.50;40.90;;;;;;6156955;23;20167;-79
2023/02/04 07:02:31;;;;;;;0.82;0.50;;;17.50;40.90;;;;;;6157124;23;20146;-79
2023/02/04 07:04:59;;;;;;;2.90;0.50;;;17.50;40.90;;;;;;6156856;23;20135;-80
2023/02/04 07:07:25;;;;;;;0.50;0.47;;;17.50;41.00;;;;;;6157251;23;20139;-79
2023/02/04 07:09:50;;;;;;;1.35;0.55;;;17.50;41.00;;;;;;6130746;23;20202;-79
2023/02/04 07:12:16;;;;;;;0.52;0.40;;;17.50;41.00;;;;;;6157245;23;20140;-79
2023/02/04 07:14:41;;;;;;;0.47;0.45;;;17.50;41.00;;;;;;6157135;23;20139;-79
2023/02/04 07:17:07;;;;;;;1.33;0.60;;;17.50;41.00;;;;;;6156630;23;20719;-80
2023/02/04 07:19:34;;;;;;;0.70;0.50;;;17.50;40.90;;;;;;6156486;23;20583;-79
2023/02/04 07:21:59;;;;;;;1.02;0.60;;;17.50;40.80;;;;;;6156537;23;20412;-81
2023/02/04 07:24:25;;;;;;;1.20;0.50;;;17.50;41.00;;;;;;6131012;23;20136;-79
2023/02/04 07:26:51;;;;;;;0.90;0.50;;;17.40;41.10;;;;;;6156642;23;20132;-79
2023/02/04 07:29:17;;;;;;;1.27;0.60;;;17.50;41.20;;;;;;6131065;23;20155;-79
2023/02/04 07:31:44;;;;;;;0.77;0.52;;;17.50;41.20;;;;;;6156634;23;20136;-79
2023/02/04 07:34:12;;;;;;;1.02;0.50;;;17.50;41.00;;;;;;6106231;23;20152;-79
2023/02/04 07:36:37;;;;;;;0.85;0.45;;;17.50;41.10;;;;;;6130456;23;20139;-79
2023/02/04 07:39:03;;;;;;;0.52;0.45;;;17.50;41.10;;;;;;6156719;23;20662;-79
2023/02/04 07:41:29;;;;;;;1.27;0.65;;;17.50;41.10;;;;;;6156404;23;20192;-80
2023/02/04 07:43:54;;;;;;;0.50;0.30;;;17.50;41.10;;;;;;6156662;23;20448;-79
2023/02/04 07:46:20;;;;;;;0.75;0.55;;;17.50;41.10;;;;;;6130339;23;20132;-79
2023/02/04 07:48:46;;;;;;;0.40;0.40;;;17.40;41.00;;;;;;6130248;23;20572;-80
2023/02/04 07:51:11;;;;;;;0.77;0.50;;;17.50;41.00;;;;;;6156648;23;20641;-79
2023/02/04 07:53:37;;;;;;;0.85;0.60;;;17.50;41.00;;;;;;6155621;23;20140;-79
2023/02/04 07:56:03;;;;;;;2.22;0.50;;;17.50;40.90;;;;;;6155870;23;20575;-79
2023/02/04 07:58:28;;;;;;;0.70;0.50;;;17.50;41.00;;;;;;6155973;23;20198;-79
2023/02/04 08:00:54;;;;;;;1.15;0.50;;;17.50;40.90;;;;;;6155044;23;20132;-79
2023/02/04 08:03:20;;;;;;;1.02;0.60;;;17.50;41.20;;;;;;6155342;23;20232;-78
2023/02/04 08:05:45;;;;;;;0.50;0.50;;;17.50;41.10;;;;;;6129153;23;20156;-79
2023/02/04 08:08:11;;;;;;;1.08;0.52;;;17.50;41.10;;;;;;6129909;23;20144;-78
2023/02/04 08:10:37;;;;;;;3.38;0.52;;;17.50;41.20;;;;;;6155823;23;20507;-79
2023/02/04 08:13:02;;;;;;;1.48;0.52;;;17.50;41.10;;;;;;6155622;23;20163;-79
2023/02/04 08:15:28;;;;;;;1.15;0.50;;;17.60;41.20;;;;;;6155584;23;20615;-78
2023/02/04 08:17:53;;;;;;;2.20;0.60;;;17.50;41.00;;;;;;6130315;23;20136;-79
2023/02/04 08:20:19;;;;;;;0.85;0.70;;;17.60;41.00;;;;;;6155826;23;20646;-78
2023/02/04 08:22:45;;;;;;;2.17;0.50;;;17.60;41.10;;;;;;6155725;23;20171;-79
2023/02/04 08:25:11;;;;;;;0.82;0.50;;;17.60;41.10;;;;;;6155172;23;20626;-78
2023/02/04 08:27:37;;;;;;;2.20;0.68;;;17.60;41.10;;;;;;6155474;23;20142;-79
2023/02/04 08:30:03;;;;;;;1.20;0.70;;;17.60;41.10;;;;;;6105739;23;20135;-79
2023/02/04 08:32:30;;;;;;;0.73;0.50;;;17.60;41.20;;;;;;6129655;23;20136;-80
2023/02/04 08:34:56;;;;;;;1.35;0.50;;;17.60;41.10;;;;;;6156538;23;20132;-78
2023/02/04 08:37:22;;;;;;;2.88;0.60;;;17.80;41.20;;;;;;6129805;23;20187;-79
2023/02/04 08:39:48;;;;;;;2.90;0.80;;;17.80;41.00;;;;;;6155933;23;20190;-80
2023/02/04 08:42:14;;;;;;;6.55;0.85;;;17.80;40.80;;;;;;6156271;23;20135;-80
2023/02/04 08:44:40;;;;;;;5.03;0.68;;;17.80;41.10;;;;;;6129042;23;20162;-79
2023/02/04 08:47:06;;;;;;;5.60;0.85;;;17.90;40.90;;;;;;6155019;23;20579;-79
2023/02/04 08:49:31;;;;;;;7.03;1.10;;;18.00;40.90;;;;;;6129332;23;20201;-80
2023/02/04 08:51:57;;;;;;;4.22;0.73;;;18.00;40.70;;;;;;6105074;23;20139;-81
2023/02/04 08:54:24;;;;;;;1.83;0.93;;;18.10;40.70;;;;;;6105987;23;20157;-83
2023/02/04 08:56:50;;;;;;;7.05;0.93;;;18.10;40.70;;;;;;6156486;23;20132;-81
2023/02/04 08:59:16;;;;;;;7.38;0.80;;;18.10;40.90;;;;;;6129845;23;20262;-80
2023/02/04 09:01:42;;;;;;;11.90;1.02;;;18.10;40.90;;;;;;6081737;23;20175;-82
2023/02/04 09:04:08;;;;;;;8.63;1.00;;;18.10;41.40;;;;;;6128783;23;20142;-82
2023/02/04 09:06:34;;;;;;;9.43;1.00;;;18.20;41.10;;;;;;6154982;23;20206;-81
2023/02/04 09:08:59;;;;;;;9.25;0.90;;;18.20;41.20;;;;;;6159050;23;20139;-82
2023/02/04 09:11:26;;;;;;;8.23;0.80;;;18.20;41.00;;;;;;6135064;23;20136;-81
2023/02/04 09:13:52;;;;;;;10.45;1.30;;;18.30;40.90;;;;;;6161165;23;20190;-83
2023/02/04 09:16:17;;;;;;;6.05;1.00;;;18.30;40.80;;;;;;6133833;23;20178;-82
2023/02/04 09:18:43;;;;;;;5.03;0.70;;;18.30;41.70;;;;;;6132509;23;20166;-81
2023/02/04 09:21:10;;;;;;;10.10;0.90;;;18.30;41.00;;;;;;6160073;23;20214;-83
2023/02/04 09:23:35;;;;;;;4.53;0.93;;;18.20;40.80;;;;;;6133692;23;20138;-82
2023/02/04 09:26:03;;;;;;;6.07;0.60;;;18.20;41.00;;;;;;6109832;23;20159;-81
2023/02/04 09:28:28;;;;;;;2.65;0.60;;;18.30;40.90;;;;;;6110632;23;20147;-82
2023/02/04 09:30:55;;;;;;;5.07;0.77;;;18.30;40.90;;;;;;6084866;23;20151;-81
2023/02/04 09:33:20;;;;;;;5.80;0.60;;;18.30;41.00;;;;;;6084793;23;20147;-82
2023/02/04 09:35:46;;;;;;;7.95;0.90;;;18.30;40.80;;;;;;6108617;23;20214;-80
2023/02/04 09:38:11;;;;;;;6.93;0.60;;;18.40;40.80;;;;;;6159733;23;20222;-81
2023/02/04 09:40:41;;;;;;;3.95;0.75;;;18.40;40.70;;;;;;6109335;23;20448;-80
2023/02/04 09:43:08;;;;;;;5.22;0.85;;;18.40;40.70;;;;;;6110261;23;20155;-81
2023/02/04 09:45:34;;;;;;;3.50;0.88;;;18.40;40.90;;;;;;6110676;23;20151;-82
2023/02/04 09:48:02;;;;;;;4.28;0.73;;;18.40;41.00;;;;;;6109868;23;20246;-80
2023/02/04 09:50:28;;;;;;;7.65;1.27;;;18.40;40.90;;;;;;6109318;23;20147;-80
2023/02/04 09:52:55;;;;;;;8.90;0.93;;;18.40;41.00;;;;;;6084919;23;20151;-79
2023/02/04 09:55:23;;;;;;;9.10;1.08;;;18.40;41.10;;;;;;6132950;23;20162;-79
2023/02/04 09:57:49;;;;;;;8.85;1.52;;;18.40;41.20;;;;;;6108720;23;20153;-80
2023/02/04 10:00:17;;;;;;;11.15;0.88;;;18.40;41.40;;;;;;6108571;23;20187;-80
2023/02/04 10:02:43;;;;;;;3.80;0.68;;;18.40;41.70;;;;;;6108662;23;20135;-81
2023/02/04 10:05:18;;;;;;;5.75;0.70;;;18.40;41.90;;;;;;6108432;23;20574;-80
2023/02/04 10:07:44;;;;;;;6.88;0.70;;;18.40;42.00;;;;;;6107554;23;20155;-79
2023/02/04 10:10:20;;;;;;;2.53;1.17;;;18.40;41.90;;;;;;6107505;23;20246;-79
2023/02/04 10:12:45;;;;;;;6.25;0.90;;;18.50;41.60;;;;;;6131043;23;20558;-80
2023/02/04 10:15:14;;;;;;;7.35;0.80;;;18.50;40.50;;;;;;6082981;23;20217;-80
2023/02/04 10:17:41;;;;;;;8.25;0.98;;;18.50;42.10;;;;;;6132241;23;20254;-80
2023/02/04 10:20:15;;;;;;;6.60;0.70;;;18.40;41.40;;;;;;6156502;23;20163;-80
2023/02/04 10:22:40;;;;;;;9.55;0.70;;;18.50;42.10;;;;;;6107126;23;20158;-81
2023/02/04 10:25:13;;;;;;;8.05;0.93;;;18.50;42.10;;;;;;6108152;23;20159;-81
2023/02/04 10:27:56;;;;;;;9.18;1.23;;;18.50;42.30;;;;;;6131518;23;20595;-82
2023/02/04 10:30:25;;;;;;;15.07;1.13;;;18.50;42.50;;;;;;6157015;23;20158;-79
2023/02/04 10:32:51;;;;;;;13.73;1.15;;;18.50;42.50;;;;;;6156966;23;20163;-80
2023/02/04 10:35:18;;;;;;;11.85;1.02;;;18.50;41.60;;;;;;6130717;23;20155;-79
2023/02/04 10:37:46;;;;;;;13.15;1.40;;;18.50;41.60;;;;;;6156493;23;20191;-79
2023/02/04 10:40:27;;;;;;;13.18;1.30;;;18.50;41.90;;;;;;6156526;23;20250;-79
2023/02/04 10:42:54;;;;;;;8.02;0.98;;;18.50;41.80;;;;;;6106143;23;20204;-80
2023/02/04 10:45:28;;;;;;;13.02;1.67;;;18.50;41.60;;;;;;6130828;23;20150;-80
2023/02/04 10:47:54;;;;;;;16.77;1.50;;;18.50;42.20;;;;;;6130091;23;20139;-80
2023/02/04 10:50:22;;;;;;;14.95;1.08;;;18.50;42.70;;;;;;6105969;23;20551;-79
2023/02/04 10:52:51;;;;;;;14.32;1.50;;;18.50;42.60;;;;;;6156470;23;20132;-80
2023/02/04 10:55:18;;;;;;;11.13;1.15;;;18.50;42.50;;;;;;6106701;23;20443;-80
2023/02/04 10:57:45;;;;;;;15.30;1.35;;;18.50;42.70;;;;;;6155472;23;20162;-80
2023/02/04 11:00:19;;;;;;;4.95;0.90;;;18.50;42.80;;;;;;6103322;23;20186;-80
2023/02/04 11:02:55;;;;;;;7.80;0.98;;;18.50;42.30;;;;;;6153788;23;20528;-80
2023/02/04 11:05:22;;;;;;;14.95;1.20;;;18.50;42.50;;;;;;6154101;23;20150;-81
2023/02/04 11:07:48;;;;;;;11.18;1.10;;;18.50;43.10;;;;;;6107103;23;20163;-80
2023/02/04 11:10:17;;;;;;;10.05;1.00;;;18.50;43.40;;;;;;6157162;23;20180;-80
2023/02/04 11:12:46;;;;;;;7.15;0.88;;;18.50;42.50;;;;;;6156567;23;20219;-80
2023/02/04 11:15:39;;;;;;;7.28;1.05;;;18.50;43.10;;;;;;6130417;23;20131;-80
2023/02/04 11:18:08;;;;;;;4.55;0.90;;;18.60;43.50;;;;;;6157353;23;20634;-81
2023/02/04 11:20:35;;;;;;;11.38;1.20;;;18.60;43.40;;;;;;6155395;23;20614;-79
2023/02/04 11:23:31;;;;;;;8.18;0.90;;;18.60;43.70;;;;;;6130490;23;20463;-80
2023/02/04 11:26:17;;;;;;;4.57;0.90;;;18.60;43.30;;;;;;6156577;23;20210;-80
2023/02/04 11:28:56;;;;;;;14.32;1.10;;;18.60;43.50;;;;;;6132621;23;20160;-80
2023/02/04 11:31:41;;;;;;;8.73;1.08;;;18.60;43.40;;;;;;6129627;23;20518;-82
2023/02/04 11:34:12;;;;;;;9.30;1.13;;;18.60;43.40;;;;;;6109540;23;20147;-80
2023/02/04 11:37:15;;;;;;;9.88;1.10;;;18.60;42.90;;;;;;6131162;23;20198;-80
2023/02/04 11:39:43;;;;;;;6.32;1.05;;;18.60;44.40;;;;;;6156722;23;20619;-81
2023/02/04 11:42:20;;;;;;;6.40;0.73;;;18.60;43.70;;;;;;6156990;23;20135;-80
2023/02/04 11:44:48;;;;;;;4.68;0.73;;;18.60;44.10;;;;;;6105486;23;20151;-79
2023/02/04 11:47:14;;;;;;;4.70;0.70;;;18.60;43.80;;;;;;6129415;23;20587;-79
2023/02/04 11:49:40;;;;;;;3.53;0.80;;;18.60;43.10;;;;;;6156160;23;20183;-79
2023/02/04 11:52:07;;;;;;;5.07;0.60;;;18.60;43.00;;;;;;6156428;23;20140;-78
2023/02/04 11:54:34;;;;;;;3.33;0.80;;;18.70;42.70;;;;;;6155845;23;20136;-82
2023/02/04 11:57:04;;;;;;;11.65;1.00;;;18.70;42.80;;;;;;6156041;23;20139;-80
2023/02/04 11:59:30;;;;;;;6.47;0.75;;;18.70;43.30;;;;;;6130099;23;20183;-80
2023/02/04 12:02:15;;;;;;;6.88;0.70;;;18.70;43.10;;;;;;6156266;23;20159;-79
2023/02/04 12:04:51;;;;;;;6.22;0.85;;;18.70;43.60;;;;;;6129856;23;20150;-80
2023/02/04 12:07:22;;;;;;;7.03;0.70;;;18.70;43.10;;;;;;6106308;23;20131;-80
2023/02/04 12:09:48;;;;;;;6.20;0.80;;;18.70;44.10;;;;;;6155727;23;20143;-82
2023/02/04 12:12:22;;;;;;;6.72;0.75;;;18.60;44.60;;;;;;6105717;23;20205;-80
2023/02/04 12:14:56;;;;;;;4.13;0.68;;;18.60;44.80;;;;;;6129288;23;20147;-79
2023/02/04 12:17:21;;;;;;;4.38;0.80;;;18.60;44.30;;;;;;6155413;23;20170;-80
2023/02/04 12:19:47;;;;;;;7.07;0.73;;;18.60;44.80;;;;;;6155694;23;20214;-81
2023/02/04 12:22:14;;;;;;;2.97;0.52;;;18.60;44.80;;;;;;6155143;23;20227;-80
2023/02/04 12:24:40;;;;;;;11.63;0.85;;;18.60;44.40;;;;;;6156200;23;20163;-80
2023/02/04 12:27:06;;;;;;;4.22;0.90;;;18.60;44.90;;;;;;6156324;23;20572;-80
2023/02/04 12:29:31;;;;;;;2.47;0.57;;;18.60;44.10;;;;;;6156823;23;20143;-80
2023/02/04 12:31:57;;;;;;;6.60;0.70;;;18.60;43.80;;;;;;6131307;23;20143;-80
2023/02/04 12:34:23;;;;;;;3.65;0.73;;;18.60;44.00;;;;;;6156879;23;20186;-80
2023/02/04 12:36:49;;;;;;;4.43;0.50;;;18.70;43.80;;;;;;6132203;23;20191;-80
2023/02/04 12:39:14;;;;;;;4.47;0.75;;;18.70;43.50;;;;;;6132586;23;20167;-80
2023/02/04 12:41:43;;;;;;;5.40;0.80;;;18.70;43.20;;;;;;6131073;23;20143;-79
2023/02/04 12:44:09;;;;;;;1.88;0.57;;;18.70;44.10;;;;;;6130695;23;20233;-80